If you wish to contribute or participate in the discussions about articles you are invited to join SKYbrary as a registered user

 Actions

Ivato International Airport

From SKYbrary Wiki

FMMI
Airport
ICAO: FMMI – IATA: TNR
Summary
Name Ivato International Airport
Region Africa
Territory Madagascar MG.gif
Location Antananarivo, Antananarivo Province
Serving Antananarivo
Elevation 1,279.55 m
4,198 ft
4,198 ft1,279.55 m
Coordinates 18° 47' 47.00" S, 47° 28' 34.00" E
Runways
Designator Length Width Surface ROPS
11/29 3100 m10,170.604 ft
45 m147.638 ft
ASP yes/yes


METAR
Observation FMMI 230230Z 16004KT 130V190 9999 FEW020 12/10 Q1023 NOSIG
Station Antananarivo / Ivato
Date/Time 23 September 2020 02:30:00
Wind direction 160°
Wind speed 04 kts
Lowest cloud amount few clouds
Temperature 12°C
Dew point 10°C
Humidity 87%
QNH 1023 hPa
Weather condition n/a

International airport 16 km8.639 nm
16,000 m
52,493.438 ft
north of Antananarivo, the capital city of Madagascar.

Climatology

Sub-tropical highland climate (Köppen climate classification Cwb)

Maps

Terrain

Loading map...

Airport Layout

Loading map...


Accidents & Serious Incidents at or in vicinity of FMMI

None on SKYbrary